createdAt,value
2022-11-26T00:02:27.599Z,101209.63
2022-11-26T00:04:56.149Z,101207.13
2022-11-26T00:07:26.852Z,101206.59
2022-11-26T00:09:55.256Z,101209.34
2022-11-26T00:12:26.709Z,101209.06
2022-11-26T00:14:54.042Z,101209.88
2022-11-26T00:17:21.540Z,101222.47
2022-11-26T00:19:48.527Z,101215.06
2022-11-26T00:22:53.281Z,101224.94
2022-11-26T00:25:23.149Z,101215.66
2022-11-26T00:27:52.514Z,101223.84
2022-11-26T00:30:28.045Z,101222.22
2022-11-26T00:32:56.307Z,101220.00
2022-11-26T00:35:23.790Z,101223.59
2022-11-26T00:37:58.675Z,101230.41
2022-11-26T00:40:28.026Z,101222.22
2022-11-26T00:43:00.052Z,101237.84
2022-11-26T00:45:30.209Z,101241.94
2022-11-26T00:48:01.802Z,101228.78
2022-11-26T00:50:40.122Z,101250.75
2022-11-26T00:53:08.367Z,101254.00
2022-11-26T00:55:38.844Z,101254.00
2022-11-26T00:58:07.193Z,101249.34
2022-11-26T01:00:35.595Z,101252.63
2022-11-26T01:03:02.780Z,101257.31
2022-11-26T01:05:32.086Z,101257.59
2022-11-26T01:08:02.602Z,101265.81
2022-11-26T01:10:30.194Z,101271.81
2022-11-26T01:12:57.522Z,101258.41
2022-11-26T01:15:26.218Z,101265.53
2022-11-26T01:17:53.683Z,101266.34
2022-11-26T01:20:26.750Z,101276.50
2022-11-26T01:22:55.590Z,101270.69
2022-11-26T01:25:24.907Z,101265.78
2022-11-26T01:27:52.501Z,101274.56
2022-11-26T01:30:30.778Z,101271.00
2022-11-26T01:32:58.041Z,101272.91
2022-11-26T01:35:24.931Z,101260.88
2022-11-26T01:37:51.774Z,101270.16
2022-11-26T01:40:18.616Z,101272.66
2022-11-26T01:42:49.756Z,101275.09
2022-11-26T01:45:22.624Z,101278.66
2022-11-26T01:47:50.065Z,101272.94
2022-11-26T01:50:31.701Z,101279.25
2022-11-26T01:53:00.990Z,101285.25
2022-11-26T01:55:36.110Z,101291.81
2022-11-26T01:58:06.973Z,101284.72
2022-11-26T02:00:34.100Z,101291.56
2022-11-26T02:03:01.891Z,101294.56
2022-11-26T02:05:33.850Z,101297.03
2022-11-26T02:08:02.279Z,101288.81
2022-11-26T02:10:29.130Z,101292.13
2022-11-26T02:12:55.991Z,101295.94
2022-11-26T02:15:27.874Z,101290.72
2022-11-26T02:18:09.524Z,101296.22
2022-11-26T02:21:06.088Z,101297.31
2022-11-26T02:24:12.759Z,101304.16
2022-11-26T02:26:54.819Z,101300.03
2022-11-26T02:29:46.539Z,101311.00
2022-11-26T02:32:22.871Z,101312.63
2022-11-26T02:34:58.453Z,101310.19
2022-11-26T02:37:33.950Z,101317.00
2022-11-26T02:40:00.781Z,101318.06
2022-11-26T02:42:32.977Z,101326.28
2022-11-26T02:45:08.044Z,101329.03
2022-11-26T02:47:38.037Z,101333.69
2022-11-26T02:50:10.341Z,101333.41
2022-11-26T02:52:39.984Z,101335.06
2022-11-26T02:55:08.680Z,101339.47
2022-11-26T02:57:43.721Z,101335.88
2022-11-26T03:00:11.041Z,101332.88
2022-11-26T03:03:09.143Z,101330.41
2022-11-26T03:05:39.275Z,101335.28
2022-11-26T03:25:46.121Z,101373.13
2022-11-26T03:28:12.997Z,101375.09
2022-11-26T03:30:39.808Z,101370.75
2022-11-26T03:33:06.678Z,101377.09
2022-11-26T03:35:33.496Z,101380.97
2022-11-26T03:38:00.312Z,101368.94
2022-11-26T03:40:27.245Z,101375.78
2022-11-26T03:42:54.119Z,101375.81
2022-11-26T03:45:21.066Z,101378.28
2022-11-26T03:47:47.913Z,101371.44
2022-11-26T03:50:14.796Z,101371.72
2022-11-26T03:52:41.662Z,101378.53
2022-11-26T03:55:09.446Z,101378.81
2022-11-26T03:57:36.931Z,101370.59
2022-11-26T04:00:06.712Z,101369.53
2022-11-26T04:02:36.522Z,101374.44
2022-11-26T04:05:04.443Z,101371.41
2022-11-26T04:07:31.337Z,101371.97
2022-11-26T04:09:58.433Z,101365.66
2022-11-26T04:12:25.386Z,101374.41
2022-11-26T04:14:53.576Z,101375.00
2022-11-26T04:17:21.538Z,101366.47
2022-11-26T04:19:49.038Z,101373.81
2022-11-26T04:22:18.931Z,101384.78
2022-11-26T04:24:46.012Z,101381.81
2022-11-26T04:27:13.001Z,101382.66
2022-11-26T04:29:40.035Z,101394.94
2022-11-26T04:32:07.151Z,101387.53
2022-11-26T04:34:34.085Z,101385.66
2022-11-26T04:37:01.011Z,101386.75
2022-11-26T04:39:27.930Z,101392.72
2022-11-26T04:41:54.955Z,101400.66
2022-11-26T04:44:21.939Z,101400.41
2022-11-26T04:46:48.738Z,101401.19
2022-11-26T04:49:15.708Z,101409.44
2022-11-26T04:51:42.552Z,101422.16
2022-11-26T04:54:12.891Z,101423.56
2022-11-26T04:56:40.618Z,101426.88
2022-11-26T04:59:07.943Z,101429.00
2022-11-26T05:01:35.333Z,101438.91
2022-11-26T05:04:02.304Z,101441.91
2022-11-26T05:06:29.269Z,101433.13
2022-11-26T05:08:56.277Z,101441.31
2022-11-26T05:11:23.161Z,101445.78
2022-11-26T05:13:50.151Z,101449.84
2022-11-26T05:16:17.194Z,101452.88
2022-11-26T05:18:44.083Z,101457.28
2022-11-26T05:21:11.105Z,101458.16
2022-11-26T05:23:38.145Z,101463.59
2022-11-26T05:26:05.246Z,101454.06
2022-11-26T05:28:32.142Z,101459.22
2022-11-26T05:31:00.865Z,101461.63
2022-11-26T05:33:28.210Z,101457.28
2022-11-26T05:35:55.422Z,101462.41
2022-11-26T05:38:22.420Z,101464.53
2022-11-26T05:40:49.611Z,101461.59
2022-11-26T05:43:16.953Z,101455.31
2022-11-26T05:45:43.955Z,101461.59
2022-11-26T05:48:10.966Z,101462.50
2022-11-26T05:50:37.931Z,101459.47
2022-11-26T05:53:05.158Z,101467.00
2022-11-26T05:55:32.431Z,101474.28
2022-11-26T05:57:59.479Z,101476.53
2022-11-26T06:00:26.654Z,101479.03
2022-11-26T06:02:53.748Z,101492.34
2022-11-26T06:05:20.967Z,101491.84
2022-11-26T06:07:47.885Z,101495.41
2022-11-26T06:10:15.021Z,101491.38
2022-11-26T06:12:42.037Z,101496.66
2022-11-26T06:15:18.134Z,101498.34
2022-11-26T06:17:45.127Z,101499.84
2022-11-26T06:20:12.799Z,101508.94
2022-11-26T06:22:41.701Z,101504.91
2022-11-26T06:25:10.662Z,101502.56
2022-11-26T06:27:38.148Z,101505.31
2022-11-26T06:30:07.170Z,101503.81
2022-11-26T06:32:34.129Z,101500.34
2022-11-26T06:35:01.020Z,101503.47
2022-11-26T06:37:27.877Z,101505.06
2022-11-26T06:39:54.764Z,101511.53
2022-11-26T06:42:21.571Z,101503.03
2022-11-26T06:44:48.345Z,101523.06
2022-11-26T06:47:15.166Z,101511.31
2022-11-26T06:49:42.333Z,101524.28
2022-11-26T06:52:09.198Z,101523.81
2022-11-26T06:54:36.121Z,101532.03
2022-11-26T06:57:03.042Z,101526.69
2022-11-26T06:59:30.028Z,101531.53
2022-11-26T07:01:57.036Z,101533.47
2022-11-26T07:04:24.052Z,101538.00
2022-11-26T07:06:50.940Z,101528.59
2022-11-26T07:09:17.888Z,101539.63
2022-11-26T07:11:44.799Z,101542.09
2022-11-26T07:14:11.733Z,101542.44
2022-11-26T07:16:38.687Z,101548.53
2022-11-26T07:19:05.529Z,101541.03
2022-11-26T07:21:32.413Z,101555.34
2022-11-26T07:23:59.292Z,101539.75
2022-11-26T07:26:26.250Z,101554.03
2022-11-26T07:28:53.695Z,101556.94
2022-11-26T07:31:22.891Z,101552.59
2022-11-26T07:33:50.501Z,101546.34
2022-11-26T07:36:26.614Z,101546.06
2022-11-26T07:38:55.557Z,101550.03
2022-11-26T07:41:23.169Z,101549.66
2022-11-26T07:43:50.309Z,101554.34
2022-11-26T07:46:20.275Z,101550.06
2022-11-26T07:48:47.711Z,101554.97
2022-11-26T07:51:24.147Z,101561.34
2022-11-26T07:53:52.030Z,101557.13
2022-11-26T07:56:19.677Z,101561.31
2022-11-26T07:58:47.242Z,101557.44
2022-11-26T08:01:17.082Z,101559.06
2022-11-26T08:03:46.317Z,101554.22
2022-11-26T08:06:16.914Z,101557.88
2022-11-26T08:08:44.155Z,101552.22
2022-11-26T08:11:17.447Z,101553.50
2022-11-26T08:13:45.090Z,101558.13
2022-11-26T08:16:13.380Z,101553.94
2022-11-26T08:18:40.913Z,101552.25
2022-11-26T08:21:08.172Z,101554.34
2022-11-26T08:23:35.759Z,101552.56
2022-11-26T08:26:23.734Z,101550.84
2022-11-26T08:28:53.253Z,101560.44
2022-11-26T08:31:20.443Z,101553.34
2022-11-26T08:33:47.312Z,101562.03
2022-11-26T08:36:14.258Z,101559.56
2022-11-26T08:38:41.605Z,101563.72
2022-11-26T08:41:11.683Z,101559.38
2022-11-26T08:44:05.212Z,101561.84
2022-11-26T08:46:26.361Z,101573.25
2022-11-26T08:48:56.640Z,101568.09
2022-11-26T08:51:24.916Z,101564.66
2022-11-26T08:53:51.798Z,101567.47
2022-11-26T08:56:18.825Z,101568.34
2022-11-26T08:58:46.638Z,101566.84
2022-11-26T09:01:19.648Z,101563.78
2022-11-26T09:03:51.536Z,101571.88
2022-11-26T09:06:19.651Z,101561.50
2022-11-26T09:09:07.255Z,101562.50
2022-11-26T09:11:37.341Z,101560.16
2022-11-26T09:14:04.481Z,101557.03
2022-11-26T09:16:32.148Z,101563.66
2022-11-26T09:19:03.841Z,101553.50
2022-11-26T09:21:31.191Z,101553.72
2022-11-26T09:23:58.064Z,101549.81
2022-11-26T09:26:25.441Z,101546.41
2022-11-26T09:28:52.811Z,101552.94
2022-11-26T09:31:20.542Z,101552.44
2022-11-26T09:33:47.607Z,101550.19
2022-11-26T09:36:16.602Z,101543.63
2022-11-26T09:38:43.806Z,101546.16
2022-11-26T09:41:29.548Z,101541.38
2022-11-26T09:44:22.519Z,101532.97
2022-11-26T09:47:28.553Z,101541.13
2022-11-26T09:50:07.546Z,101527.34
2022-11-26T09:52:40.145Z,101529.88
2022-11-26T09:55:34.499Z,101527.94
2022-11-26T09:58:27.019Z,101540.28
2022-11-26T10:00:56.968Z,101528.41
2022-11-26T10:03:31.680Z,101537.06
2022-11-26T10:06:19.938Z,101531.16
2022-11-26T10:09:11.198Z,101530.97
2022-11-26T10:11:52.579Z,101515.66
2022-11-26T10:14:25.568Z,101519.06
2022-11-26T10:16:58.391Z,101523.53
2022-11-26T10:19:31.439Z,101513.94
2022-11-26T10:22:03.593Z,101510.47
2022-11-26T10:24:42.239Z,101517.41
2022-11-26T10:27:24.903Z,101513.72
2022-11-26T10:30:09.702Z,101523.50
2022-11-26T10:32:41.709Z,101519.91
2022-11-26T10:35:15.720Z,101514.91
2022-11-26T10:37:42.848Z,101524.16
2022-11-26T10:40:25.795Z,101527.75
2022-11-26T10:43:10.417Z,101522.41
2022-11-26T10:45:40.333Z,101520.66
2022-11-26T10:48:19.206Z,101532.31
2022-11-26T10:51:06.615Z,101533.25
2022-11-26T10:53:55.960Z,101534.78
2022-11-26T10:56:48.120Z,101540.22
2022-11-26T10:59:25.428Z,101536.25
2022-11-26T11:01:56.248Z,101530.91
2022-11-26T11:04:24.582Z,101542.59
2022-11-26T11:06:51.466Z,101546.66
2022-11-26T11:09:38.052Z,101533.81
2022-11-26T11:12:11.072Z,101549.78
2022-11-26T11:14:43.081Z,101555.88
2022-11-26T11:17:31.932Z,101550.16
2022-11-26T11:20:22.237Z,101551.75
2022-11-26T11:22:57.845Z,101546.16
2022-11-26T11:25:28.501Z,101546.81
2022-11-26T11:28:02.143Z,101549.78
2022-11-26T11:30:32.861Z,101541.63
2022-11-26T11:33:12.040Z,101542.84
2022-11-26T11:35:39.007Z,101551.31
2022-11-26T11:38:21.981Z,101561.06
2022-11-26T11:40:49.441Z,101543.38
2022-11-26T11:43:19.851Z,101557.97
2022-11-26T11:46:11.129Z,101545.59
2022-11-26T11:48:37.913Z,101547.03
2022-11-26T11:51:10.894Z,101546.69
2022-11-26T11:54:00.713Z,101545.09
2022-11-26T11:57:05.765Z,101538.38
2022-11-26T12:00:14.690Z,101537.34
2022-11-26T12:03:09.387Z,101538.94
2022-11-26T12:06:21.542Z,101536.72
2022-11-26T12:09:20.289Z,101535.47
2022-11-26T12:12:19.396Z,101541.19
2022-11-26T12:14:56.310Z,101542.44
2022-11-26T12:17:28.998Z,101537.53
2022-11-26T12:20:24.007Z,101544.13
2022-11-26T12:22:59.246Z,101550.75
2022-11-26T12:25:37.528Z,101554.91
2022-11-26T12:28:25.136Z,101554.66
2022-11-26T12:31:04.264Z,101552.03
2022-11-26T12:33:55.363Z,101551.44
2022-11-26T12:36:43.496Z,101549.56
2022-11-26T12:39:23.723Z,101558.09
2022-11-26T12:41:58.980Z,101549.44
2022-11-26T12:44:39.759Z,101556.31
2022-11-26T12:47:31.617Z,101555.06
2022-11-26T12:50:12.043Z,101547.78
2022-11-26T12:52:47.634Z,101552.41
2022-11-26T12:55:22.280Z,101554.22
2022-11-26T12:57:55.228Z,101550.25
2022-11-26T13:00:37.085Z,101555.69
2022-11-26T13:03:10.645Z,101558.97
2022-11-26T13:05:52.821Z,101562.66
2022-11-26T13:08:51.938Z,101562.41
2022-11-26T13:11:25.332Z,101568.28
2022-11-26T13:14:17.232Z,101574.66
2022-11-26T13:16:44.149Z,101573.25
2022-11-26T13:19:18.905Z,101577.41
2022-11-26T13:22:07.802Z,101586.94
2022-11-26T13:24:59.720Z,101569.84
2022-11-26T13:27:52.279Z,101574.81
2022-11-26T13:30:21.696Z,101584.69
2022-11-26T13:33:16.234Z,101583.69
2022-11-26T13:36:27.645Z,101584.81
2022-11-26T13:39:13.716Z,101584.59
2022-11-26T13:41:58.480Z,101586.16
2022-11-26T13:44:57.429Z,101592.03
2022-11-26T13:47:39.310Z,101583.97
2022-11-26T13:50:08.409Z,101587.16
2022-11-26T13:53:00.041Z,101595.97
2022-11-26T13:55:53.788Z,101596.22
2022-11-26T13:58:36.936Z,101603.34
2022-11-26T14:01:29.976Z,101597.84
2022-11-26T14:03:57.965Z,101603.44
2022-11-26T14:06:24.961Z,101610.03
2022-11-26T14:08:53.414Z,101606.38
2022-11-26T14:11:41.977Z,101604.72
2022-11-26T14:14:23.944Z,101611.06
2022-11-26T14:17:15.926Z,101611.47
2022-11-26T14:19:42.858Z,101618.69
2022-11-26T14:22:21.967Z,101627.88
2022-11-26T14:24:51.565Z,101629.91
2022-11-26T14:27:23.116Z,101632.16
2022-11-26T14:30:07.894Z,101635.41
2022-11-26T14:32:42.528Z,101630.84
2022-11-26T14:35:33.905Z,101637.84
2022-11-26T14:38:04.533Z,101641.44
2022-11-26T14:40:35.706Z,101650.78
2022-11-26T14:43:16.937Z,101648.59
2022-11-26T14:45:58.817Z,101647.53
2022-11-26T14:48:28.324Z,101655.00
2022-11-26T14:50:58.642Z,101658.53
2022-11-26T14:53:32.405Z,101656.66
2022-11-26T14:55:59.862Z,101663.00
2022-11-26T14:58:37.837Z,101662.44
2022-11-26T15:01:22.168Z,101665.16
2022-11-26T15:04:06.455Z,101667.88
2022-11-26T15:06:43.040Z,101666.00
2022-11-26T15:09:16.000Z,101666.28
2022-11-26T15:27:54.949Z,101686.28
2022-11-26T15:30:24.035Z,101683.78
2022-11-26T15:32:58.277Z,101686.03
2022-11-26T15:35:25.216Z,101690.44
2022-11-26T15:37:52.115Z,101690.75
2022-11-26T15:40:26.475Z,101691.84
2022-11-26T15:42:58.865Z,101692.94
2022-11-26T15:45:36.126Z,101703.38
2022-11-26T15:48:04.121Z,101700.91
2022-11-26T15:50:35.156Z,101705.84
2022-11-26T15:53:07.642Z,101695.97
2022-11-26T15:55:37.031Z,101695.44
2022-11-26T15:58:08.962Z,101704.47
2022-11-26T16:00:41.054Z,101701.97
2022-11-26T16:03:42.685Z,101697.28
2022-11-26T16:06:29.075Z,101700.56
2022-11-26T16:09:14.871Z,101706.28
2022-11-26T16:11:57.535Z,101708.97
2022-11-26T16:14:31.257Z,101713.56
2022-11-26T16:17:24.842Z,101712.91
2022-11-26T16:19:56.438Z,101716.38
2022-11-26T16:22:28.636Z,101715.81
2022-11-26T16:25:18.873Z,101710.63
2022-11-26T16:28:21.592Z,101716.63
2022-11-26T16:30:48.649Z,101708.38
2022-11-26T16:33:15.478Z,101704.25
2022-11-26T16:35:46.708Z,101712.19
2022-11-26T16:38:25.172Z,101714.97
2022-11-26T16:40:52.782Z,101718.00
2022-11-26T16:43:20.254Z,101711.97
2022-11-26T16:45:48.788Z,101710.91
2022-11-26T16:48:27.710Z,101716.34
2022-11-26T16:50:56.010Z,101712.19
2022-11-26T16:53:23.616Z,101719.63
2022-11-26T16:55:52.238Z,101716.06
2022-11-26T16:58:28.671Z,101715.25
2022-11-26T17:00:56.876Z,101719.00
2022-11-26T17:03:24.695Z,101715.47
2022-11-26T17:05:54.584Z,101714.88
2022-11-26T17:08:21.395Z,101713.75
2022-11-26T17:10:48.966Z,101721.69
2022-11-26T17:13:15.942Z,101719.72
2022-11-26T17:15:43.986Z,101708.97
2022-11-26T17:18:20.853Z,101719.97
2022-11-26T17:20:48.402Z,101724.13
2022-11-26T17:23:15.635Z,101727.03
2022-11-26T17:25:50.649Z,101735.78
2022-11-26T17:28:17.598Z,101730.25
2022-11-26T17:30:45.103Z,101729.09
2022-11-26T17:33:12.292Z,101728.25
2022-11-26T17:35:39.296Z,101731.78
2022-11-26T17:38:16.948Z,101734.00
2022-11-26T17:40:44.933Z,101737.97
2022-11-26T17:43:12.229Z,101730.63
2022-11-26T17:45:40.007Z,101737.78
2022-11-26T17:48:07.414Z,101740.22
2022-11-26T17:50:36.306Z,101748.63
2022-11-26T17:53:03.855Z,101748.94
2022-11-26T17:55:31.467Z,101743.97
2022-11-26T17:57:58.540Z,101751.09
2022-11-26T18:00:28.581Z,101747.28
2022-11-26T18:02:56.130Z,101747.38
2022-11-26T18:05:23.538Z,101739.25
2022-11-26T18:07:50.412Z,101739.72
2022-11-26T18:10:19.849Z,101746.53
2022-11-26T18:12:47.347Z,101747.06
2022-11-26T18:15:22.999Z,101746.03
2022-11-26T18:17:53.030Z,101750.47
2022-11-26T18:20:23.024Z,101749.69
2022-11-26T18:22:51.727Z,101757.88
2022-11-26T18:25:18.814Z,101753.28
2022-11-26T18:27:45.815Z,101752.81
2022-11-26T18:30:13.439Z,101756.28
2022-11-26T18:32:40.644Z,101749.75
2022-11-26T18:35:08.103Z,101750.88
2022-11-26T18:37:35.968Z,101755.53
2022-11-26T18:40:03.246Z,101753.44
2022-11-26T18:42:37.212Z,101749.81
2022-11-26T18:45:07.193Z,101757.75
2022-11-26T18:47:34.165Z,101758.22
2022-11-26T18:50:01.041Z,101763.38
2022-11-26T18:52:27.939Z,101762.06
2022-11-26T18:54:55.040Z,101772.69
2022-11-26T18:57:21.886Z,101764.38
2022-11-26T18:59:50.598Z,101768.78
2022-11-26T19:02:17.760Z,101764.75
2022-11-26T19:04:44.785Z,101772.78
2022-11-26T19:07:12.303Z,101771.06
2022-11-26T19:09:39.496Z,101776.56
2022-11-26T19:12:06.846Z,101774.91
2022-11-26T19:14:33.676Z,101774.91
2022-11-26T19:17:01.255Z,101774.59
2022-11-26T19:19:28.320Z,101786.22
2022-11-26T19:22:00.922Z,101779.72
2022-11-26T19:24:29.040Z,101796.41
2022-11-26T19:26:56.178Z,101788.75
2022-11-26T19:29:23.094Z,101792.47
2022-11-26T19:31:49.916Z,101793.09
2022-11-26T19:34:16.942Z,101789.69
2022-11-26T19:36:48.519Z,101787.47
2022-11-26T19:39:16.393Z,101788.31
2022-11-26T19:41:43.438Z,101787.03
2022-11-26T19:44:10.558Z,101796.59
2022-11-26T19:46:41.108Z,101791.88
2022-11-26T19:49:11.952Z,101791.69
2022-11-26T19:51:39.340Z,101794.72
2022-11-26T19:54:06.394Z,101792.78
2022-11-26T19:56:34.157Z,101796.38
2022-11-26T19:59:02.340Z,101792.56
2022-11-26T20:01:32.363Z,101790.31
2022-11-26T20:04:01.059Z,101797.16
2022-11-26T20:06:29.432Z,101793.34
2022-11-26T20:08:58.415Z,101786.22
2022-11-26T20:11:26.212Z,101790.59
2022-11-26T20:13:53.428Z,101791.38
2022-11-26T20:16:23.405Z,101793.06
2022-11-26T20:18:50.951Z,101794.75
2022-11-26T20:21:21.738Z,101796.19
2022-11-26T20:23:49.932Z,101793.09
2022-11-26T20:26:21.813Z,101797.69
2022-11-26T20:28:49.771Z,101797.66
2022-11-26T20:31:23.036Z,101798.66
2022-11-26T20:33:51.408Z,101796.47
2022-11-26T20:36:21.093Z,101793.19
2022-11-26T20:38:52.524Z,101801.34
2022-11-26T20:41:19.939Z,101792.13
2022-11-26T20:43:46.837Z,101794.25
2022-11-26T20:46:14.609Z,101792.88
2022-11-26T20:48:43.029Z,101799.19
2022-11-26T20:51:13.048Z,101797.63
2022-11-26T20:53:41.609Z,101801.53
2022-11-26T20:56:09.103Z,101803.28
2022-11-26T20:58:36.325Z,101810.78
2022-11-26T21:01:03.743Z,101811.63
2022-11-26T21:03:31.679Z,101813.81
2022-11-26T21:06:02.841Z,101811.31
2022-11-26T21:08:29.718Z,101811.06
2022-11-26T21:10:56.719Z,101810.47
2022-11-26T21:13:23.721Z,101809.69
2022-11-26T21:15:50.592Z,101815.72
2022-11-26T21:18:17.470Z,101816.56
2022-11-26T21:20:44.664Z,101814.25
2022-11-26T21:23:13.188Z,101816.13
2022-11-26T21:25:42.126Z,101817.78
2022-11-26T21:28:10.634Z,101819.69
2022-11-26T21:30:38.855Z,101824.13
2022-11-26T21:33:09.344Z,101819.69
2022-11-26T21:35:37.383Z,101820.19
2022-11-26T21:38:05.967Z,101822.94
2022-11-26T21:40:33.880Z,101819.94
2022-11-26T21:43:00.838Z,101818.56
2022-11-26T21:45:27.916Z,101817.50
2022-11-26T21:47:55.048Z,101818.03
2022-11-26T21:50:21.975Z,101821.66
2022-11-26T21:52:48.783Z,101820.28
2022-11-26T21:55:15.809Z,101828.22
2022-11-26T21:57:42.689Z,101822.47
2022-11-26T22:00:10.081Z,101823.34
2022-11-26T22:02:37.170Z,101820.59
2022-11-26T22:05:04.332Z,101822.03
2022-11-26T22:07:31.770Z,101825.25
2022-11-26T22:09:58.792Z,101814.06
2022-11-26T22:12:25.758Z,101813.72
2022-11-26T22:14:52.594Z,101812.66
2022-11-26T22:17:19.588Z,101819.28
2022-11-26T22:19:46.852Z,101820.53
2022-11-26T22:22:13.760Z,101809.88
2022-11-26T22:24:40.719Z,101808.03
2022-11-26T22:27:07.581Z,101813.19
2022-11-26T22:29:34.445Z,101811.31
2022-11-26T22:32:01.234Z,101802.22
2022-11-26T22:34:29.216Z,101807.22
2022-11-26T22:36:56.054Z,101802.84
2022-11-26T22:39:23.021Z,101797.63
2022-11-26T22:41:49.872Z,101806.38
2022-11-26T22:44:17.162Z,101791.03
2022-11-26T22:46:44.647Z,101801.41
2022-11-26T22:49:16.128Z,101799.28
2022-11-26T22:51:43.344Z,101797.13
2022-11-26T22:54:12.662Z,101798.50
2022-11-26T22:56:39.547Z,101806.06
2022-11-26T22:59:08.392Z,101804.78
2022-11-26T23:01:36.974Z,101805.06
2022-11-26T23:04:06.702Z,101804.97
2022-11-26T23:06:35.418Z,101802.00
2022-11-26T23:09:04.109Z,101795.47
2022-11-26T23:11:33.533Z,101793.06
2022-11-26T23:14:02.146Z,101796.88
2022-11-26T23:16:29.344Z,101797.38
2022-11-26T23:18:57.278Z,101791.34
2022-11-26T23:21:26.962Z,101807.34
2022-11-26T23:23:54.407Z,101798.81
2022-11-26T23:26:27.158Z,101796.31
2022-11-26T23:28:56.042Z,101790.56
2022-11-26T23:31:28.756Z,101795.22
2022-11-26T23:33:55.846Z,101805.06
2022-11-26T23:36:23.851Z,101800.41
2022-11-26T23:38:50.789Z,101809.97
2022-11-26T23:41:17.725Z,101804.97
2022-11-26T23:43:45.102Z,101797.50
2022-11-26T23:46:22.492Z,101802.91
2022-11-26T23:48:50.113Z,101801.09
2022-11-26T23:51:21.040Z,101809.13
2022-11-26T23:53:49.489Z,101804.47
2022-11-26T23:56:20.434Z,101806.34
2022-11-26T23:58:54.649Z,101799.44
